sensor_id;sensor_type;location;lat;lon;timestamp;P1;durP1;ratioP1;P2;durP2;ratioP2
25915;SDS011;13719;48.188;11.618;2023-05-07T00:01:49;3.20;;;1.20;;
25915;SDS011;13719;48.188;11.618;2023-05-07T00:04:18;2.63;;;2.25;;
25915;SDS011;13719;48.188;11.618;2023-05-07T00:06:47;2.00;;;1.45;;
25915;SDS011;13719;48.188;11.618;2023-05-07T00:09:16;3.33;;;1.50;;
25915;SDS011;13719;48.188;11.618;2023-05-07T00:11:45;3.80;;;1.60;;
25915;SDS011;13719;48.188;11.618;2023-05-07T00:14:14;7.88;;;1.50;;
25915;SDS011;13719;48.188;11.618;2023-05-07T00:16:42;3.85;;;1.13;;
25915;SDS011;13719;48.188;11.618;2023-05-07T00:19:10;2.42;;;1.35;;
25915;SDS011;13719;48.188;11.618;2023-05-07T00:21:39;5.80;;;1.50;;
25915;SDS011;13719;48.188;11.618;2023-05-07T00:24:08;3.60;;;1.63;;
25915;SDS011;13719;48.188;11.618;2023-05-07T00:26:36;6.05;;;1.95;;
25915;SDS011;13719;48.188;11.618;2023-05-07T00:29:06;3.45;;;1.50;;
25915;SDS011;13719;48.188;11.618;2023-05-07T00:31:34;3.83;;;1.50;;
25915;SDS011;13719;48.188;11.618;2023-05-07T00:34:03;1.38;;;1.05;;
25915;SDS011;13719;48.188;11.618;2023-05-07T00:36:32;3.25;;;1.58;;
25915;SDS011;13719;48.188;11.618;2023-05-07T00:39:00;3.40;;;1.50;;
25915;SDS011;13719;48.188;11.618;2023-05-07T00:41:29;6.80;;;1.50;;
25915;SDS011;13719;48.188;11.618;2023-05-07T00:43:58;3.15;;;1.88;;
25915;SDS011;13719;48.188;11.618;2023-05-07T00:46:30;2.13;;;1.50;;
25915;SDS011;13719;48.188;11.618;2023-05-07T00:48:59;4.15;;;1.85;;
25915;SDS011;13719;48.188;11.618;2023-05-07T00:51:27;3.83;;;1.75;;
25915;SDS011;13719;48.188;11.618;2023-05-07T00:53:56;5.00;;;1.70;;
25915;SDS011;13719;48.188;11.618;2023-05-07T00:56:24;3.90;;;1.50;;
25915;SDS011;13719;48.188;11.618;2023-05-07T00:58:53;3.38;;;1.58;;
25915;SDS011;13719;48.188;11.618;2023-05-07T01:01:21;3.00;;;1.90;;
25915;SDS011;13719;48.188;11.618;2023-05-07T01:03:51;2.88;;;1.83;;
25915;SDS011;13719;48.188;11.618;2023-05-07T01:06:20;2.30;;;1.85;;
25915;SDS011;13719;48.188;11.618;2023-05-07T01:08:50;4.40;;;1.80;;
25915;SDS011;13719;48.188;11.618;2023-05-07T01:11:19;5.15;;;1.73;;
25915;SDS011;13719;48.188;11.618;2023-05-07T01:13:48;3.97;;;1.73;;
25915;SDS011;13719;48.188;11.618;2023-05-07T01:16:17;3.60;;;2.45;;
25915;SDS011;13719;48.188;11.618;2023-05-07T01:18:45;1.58;;;1.00;;
25915;SDS011;13719;48.188;11.618;2023-05-07T01:21:16;6.32;;;2.38;;
25915;SDS011;13719;48.188;11.618;2023-05-07T01:23:47;4.53;;;2.05;;
25915;SDS011;13719;48.188;11.618;2023-05-07T01:26:16;2.42;;;1.63;;
25915;SDS011;13719;48.188;11.618;2023-05-07T01:28:45;2.28;;;1.52;;
25915;SDS011;13719;48.188;11.618;2023-05-07T01:31:14;2.55;;;1.65;;
25915;SDS011;13719;48.188;11.618;2023-05-07T01:33:43;2.88;;;1.92;;
25915;SDS011;13719;48.188;11.618;2023-05-07T01:36:12;6.18;;;2.20;;
25915;SDS011;13719;48.188;11.618;2023-05-07T01:38:41;3.30;;;1.48;;
25915;SDS011;13719;48.188;11.618;2023-05-07T01:41:11;4.00;;;1.65;;
25915;SDS011;13719;48.188;11.618;2023-05-07T01:43:40;2.53;;;1.50;;
25915;SDS011;13719;48.188;11.618;2023-05-07T01:46:08;4.72;;;2.17;;
25915;SDS011;13719;48.188;11.618;2023-05-07T01:48:37;3.55;;;2.10;;
25915;SDS011;13719;48.188;11.618;2023-05-07T01:51:05;2.40;;;1.38;;
25915;SDS011;13719;48.188;11.618;2023-05-07T01:53:35;3.60;;;1.50;;
25915;SDS011;13719;48.188;11.618;2023-05-07T01:56:04;2.35;;;1.48;;
25915;SDS011;13719;48.188;11.618;2023-05-07T01:58:34;3.28;;;1.60;;
25915;SDS011;13719;48.188;11.618;2023-05-07T02:01:02;8.10;;;2.80;;
25915;SDS011;13719;48.188;11.618;2023-05-07T02:03:30;2.55;;;1.38;;
25915;SDS011;13719;48.188;11.618;2023-05-07T02:05:59;3.33;;;2.05;;
25915;SDS011;13719;48.188;11.618;2023-05-07T02:08:27;1.92;;;1.38;;
25915;SDS011;13719;48.188;11.618;2023-05-07T02:10:56;5.30;;;2.00;;
25915;SDS011;13719;48.188;11.618;2023-05-07T02:13:26;4.35;;;1.63;;
25915;SDS011;13719;48.188;11.618;2023-05-07T02:15:56;2.28;;;1.58;;
25915;SDS011;13719;48.188;11.618;2023-05-07T02:18:24;2.35;;;1.60;;
25915;SDS011;13719;48.188;11.618;2023-05-07T02:20:53;4.72;;;1.60;;
25915;SDS011;13719;48.188;11.618;2023-05-07T02:23:21;4.13;;;1.63;;
25915;SDS011;13719;48.188;11.618;2023-05-07T02:25:49;4.40;;;1.80;;
25915;SDS011;13719;48.188;11.618;2023-05-07T02:28:18;6.43;;;1.63;;
25915;SDS011;13719;48.188;11.618;2023-05-07T02:30:46;3.95;;;2.03;;
25915;SDS011;13719;48.188;11.618;2023-05-07T02:33:16;5.78;;;2.17;;
25915;SDS011;13719;48.188;11.618;2023-05-07T02:35:44;2.78;;;1.58;;
25915;SDS011;13719;48.188;11.618;2023-05-07T02:38:12;2.90;;;1.83;;
25915;SDS011;13719;48.188;11.618;2023-05-07T02:40:41;1.88;;;1.15;;
25915;SDS011;13719;48.188;11.618;2023-05-07T02:43:09;5.18;;;1.88;;
25915;SDS011;13719;48.188;11.618;2023-05-07T02:45:37;2.17;;;1.25;;
25915;SDS011;13719;48.188;11.618;2023-05-07T02:48:06;2.15;;;1.60;;
25915;SDS011;13719;48.188;11.618;2023-05-07T02:50:36;2.55;;;1.77;;
25915;SDS011;13719;48.188;11.618;2023-05-07T02:53:04;3.60;;;1.90;;
25915;SDS011;13719;48.188;11.618;2023-05-07T02:55:32;5.40;;;1.42;;
25915;SDS011;13719;48.188;11.618;2023-05-07T02:58:01;4.20;;;1.80;;
25915;SDS011;13719;48.188;11.618;2023-05-07T03:00:29;2.97;;;2.08;;
25915;SDS011;13719;48.188;11.618;2023-05-07T03:02:57;8.05;;;1.73;;
25915;SDS011;13719;48.188;11.618;2023-05-07T03:05:26;2.55;;;1.50;;
25915;SDS011;13719;48.188;11.618;2023-05-07T03:07:55;2.22;;;1.27;;
25915;SDS011;13719;48.188;11.618;2023-05-07T03:10:24;2.58;;;1.23;;
25915;SDS011;13719;48.188;11.618;2023-05-07T03:12:52;11.95;;;2.10;;
25915;SDS011;13719;48.188;11.618;2023-05-07T03:15:20;3.20;;;1.60;;
25915;SDS011;13719;48.188;11.618;2023-05-07T03:17:49;2.20;;;1.48;;
25915;SDS011;13719;48.188;11.618;2023-05-07T03:20:17;3.47;;;1.63;;
25915;SDS011;13719;48.188;11.618;2023-05-07T03:22:45;6.90;;;1.02;;
25915;SDS011;13719;48.188;11.618;2023-05-07T03:25:15;4.15;;;1.90;;
25915;SDS011;13719;48.188;11.618;2023-05-07T03:27:43;1.98;;;1.10;;
25915;SDS011;13719;48.188;11.618;2023-05-07T03:30:12;2.58;;;1.40;;
25915;SDS011;13719;48.188;11.618;2023-05-07T03:32:40;3.92;;;1.63;;
25915;SDS011;13719;48.188;11.618;2023-05-07T03:35:09;0.95;;;0.73;;
25915;SDS011;13719;48.188;11.618;2023-05-07T03:37:37;3.85;;;1.60;;
25915;SDS011;13719;48.188;11.618;2023-05-07T03:40:06;2.30;;;1.35;;
25915;SDS011;13719;48.188;11.618;2023-05-07T03:42:38;2.60;;;1.30;;
25915;SDS011;13719;48.188;11.618;2023-05-07T03:45:07;3.38;;;1.85;;
25915;SDS011;13719;48.188;11.618;2023-05-07T03:47:36;2.20;;;1.30;;
25915;SDS011;13719;48.188;11.618;2023-05-07T03:50:04;2.70;;;1.48;;
25915;SDS011;13719;48.188;11.618;2023-05-07T03:52:33;2.40;;;1.75;;
25915;SDS011;13719;48.188;11.618;2023-05-07T03:55:01;3.38;;;1.92;;
25915;SDS011;13719;48.188;11.618;2023-05-07T03:57:30;3.75;;;2.53;;
25915;SDS011;13719;48.188;11.618;2023-05-07T03:59:59;2.85;;;1.50;;
25915;SDS011;13719;48.188;11.618;2023-05-07T04:02:28;2.63;;;1.75;;
25915;SDS011;13719;48.188;11.618;2023-05-07T04:04:57;3.03;;;1.42;;
25915;SDS011;13719;48.188;11.618;2023-05-07T04:07:25;4.97;;;1.40;;
25915;SDS011;13719;48.188;11.618;2023-05-07T04:09:53;2.80;;;1.60;;
25915;SDS011;13719;48.188;11.618;2023-05-07T04:12:22;3.15;;;2.22;;
25915;SDS011;13719;48.188;11.618;2023-05-07T04:14:52;6.43;;;1.63;;
25915;SDS011;13719;48.188;11.618;2023-05-07T04:17:22;2.65;;;1.27;;
25915;SDS011;13719;48.188;11.618;2023-05-07T04:19:50;3.55;;;1.35;;
25915;SDS011;13719;48.188;11.618;2023-05-07T04:22:19;2.13;;;0.95;;
25915;SDS011;13719;48.188;11.618;2023-05-07T04:24:47;1.85;;;1.17;;
25915;SDS011;13719;48.188;11.618;2023-05-07T04:27:15;2.95;;;1.35;;
25915;SDS011;13719;48.188;11.618;2023-05-07T04:29:44;3.38;;;1.52;;
25915;SDS011;13719;48.188;11.618;2023-05-07T04:32:13;3.67;;;1.83;;
25915;SDS011;13719;48.188;11.618;2023-05-07T04:34:43;0.93;;;0.77;;
25915;SDS011;13719;48.188;11.618;2023-05-07T04:37:12;3.42;;;1.77;;
25915;SDS011;13719;48.188;11.618;2023-05-07T04:39:40;4.03;;;1.55;;
25915;SDS011;13719;48.188;11.618;2023-05-07T04:42:08;1.55;;;1.27;;
25915;SDS011;13719;48.188;11.618;2023-05-07T04:44:37;2.25;;;1.30;;
25915;SDS011;13719;48.188;11.618;2023-05-07T04:47:05;2.50;;;1.48;;
25915;SDS011;13719;48.188;11.618;2023-05-07T04:49:33;1.83;;;1.55;;
25915;SDS011;13719;48.188;11.618;2023-05-07T04:52:03;1.92;;;1.13;;
25915;SDS011;13719;48.188;11.618;2023-05-07T04:54:32;2.47;;;1.25;;
25915;SDS011;13719;48.188;11.618;2023-05-07T04:57:00;2.30;;;1.08;;
25915;SDS011;13719;48.188;11.618;2023-05-07T04:59:29;2.45;;;1.27;;
25915;SDS011;13719;48.188;11.618;2023-05-07T05:01:57;2.35;;;1.30;;
25915;SDS011;13719;48.188;11.618;2023-05-07T05:04:26;3.45;;;1.10;;
25915;SDS011;13719;48.188;11.618;2023-05-07T05:06:55;1.08;;;0.98;;
25915;SDS011;13719;48.188;11.618;2023-05-07T05:09:24;2.78;;;1.20;;
25915;SDS011;13719;48.188;11.618;2023-05-07T05:11:53;4.07;;;1.77;;
25915;SDS011;13719;48.188;11.618;2023-05-07T05:14:21;2.42;;;1.27;;
25915;SDS011;13719;48.188;11.618;2023-05-07T05:16:50;4.15;;;1.48;;
25915;SDS011;13719;48.188;11.618;2023-05-07T05:19:18;1.90;;;1.02;;
25915;SDS011;13719;48.188;11.618;2023-05-07T05:21:46;3.45;;;1.73;;
25915;SDS011;13719;48.188;11.618;2023-05-07T05:24:15;4.15;;;1.50;;
25915;SDS011;13719;48.188;11.618;2023-05-07T05:26:45;2.45;;;1.25;;
25915;SDS011;13719;48.188;11.618;2023-05-07T05:29:13;1.63;;;1.20;;
25915;SDS011;13719;48.188;11.618;2023-05-07T05:31:42;1.83;;;1.20;;
25915;SDS011;13719;48.188;11.618;2023-05-07T05:34:10;1.77;;;1.52;;
25915;SDS011;13719;48.188;11.618;2023-05-07T05:36:38;1.38;;;1.00;;
25915;SDS011;13719;48.188;11.618;2023-05-07T05:39:07;2.60;;;1.27;;
25915;SDS011;13719;48.188;11.618;2023-05-07T05:41:35;1.23;;;1.08;;
25915;SDS011;13719;48.188;11.618;2023-05-07T05:44:05;1.45;;;0.90;;
25915;SDS011;13719;48.188;11.618;2023-05-07T05:46:33;5.00;;;2.53;;
25915;SDS011;13719;48.188;11.618;2023-05-07T05:49:02;4.05;;;1.40;;
25915;SDS011;13719;48.188;11.618;2023-05-07T05:51:31;0.98;;;0.90;;
25915;SDS011;13719;48.188;11.618;2023-05-07T05:53:59;4.07;;;1.45;;
25915;SDS011;13719;48.188;11.618;2023-05-07T05:56:27;1.63;;;0.90;;
25915;SDS011;13719;48.188;11.618;2023-05-07T05:58:56;1.52;;;1.23;;
25915;SDS011;13719;48.188;11.618;2023-05-07T06:01:26;3.33;;;1.30;;
25915;SDS011;13719;48.188;11.618;2023-05-07T06:03:54;2.72;;;1.33;;
25915;SDS011;13719;48.188;11.618;2023-05-07T06:06:22;2.35;;;1.30;;
25915;SDS011;13719;48.188;11.618;2023-05-07T06:08:51;2.92;;;1.40;;
25915;SDS011;13719;48.188;11.618;2023-05-07T06:11:20;1.10;;;0.90;;
25915;SDS011;13719;48.188;11.618;2023-05-07T06:13:49;1.17;;;0.77;;
25915;SDS011;13719;48.188;11.618;2023-05-07T06:16:17;4.43;;;1.65;;
25915;SDS011;13719;48.188;11.618;2023-05-07T06:18:47;2.28;;;1.00;;
25915;SDS011;13719;48.188;11.618;2023-05-07T06:21:16;8.90;;;1.20;;
25915;SDS011;13719;48.188;11.618;2023-05-07T06:23:44;1.23;;;0.98;;
25915;SDS011;13719;48.188;11.618;2023-05-07T06:26:12;2.40;;;1.30;;
25915;SDS011;13719;48.188;11.618;2023-05-07T06:28:41;3.63;;;1.40;;
25915;SDS011;13719;48.188;11.618;2023-05-07T06:31:12;1.65;;;0.98;;
25915;SDS011;13719;48.188;11.618;2023-05-07T06:33:41;1.67;;;1.05;;
25915;SDS011;13719;48.188;11.618;2023-05-07T06:36:11;1.88;;;1.15;;
25915;SDS011;13719;48.188;11.618;2023-05-07T06:38:39;0.93;;;0.70;;
25915;SDS011;13719;48.188;11.618;2023-05-07T06:41:08;1.45;;;1.30;;
25915;SDS011;13719;48.188;11.618;2023-05-07T06:43:36;1.60;;;1.10;;
25915;SDS011;13719;48.188;11.618;2023-05-07T06:46:05;3.10;;;1.67;;
25915;SDS011;13719;48.188;11.618;2023-05-07T06:48:33;1.70;;;0.90;;
25915;SDS011;13719;48.188;11.618;2023-05-07T06:51:02;3.78;;;1.40;;
25915;SDS011;13719;48.188;11.618;2023-05-07T06:53:32;3.42;;;1.20;;
25915;SDS011;13719;48.188;11.618;2023-05-07T06:56:01;2.50;;;1.00;;
25915;SDS011;13719;48.188;11.618;2023-05-07T06:58:29;3.47;;;1.65;;
25915;SDS011;13719;48.188;11.618;2023-05-07T07:00:58;1.67;;;1.38;;
25915;SDS011;13719;48.188;11.618;2023-05-07T07:03:26;2.67;;;1.88;;
25915;SDS011;13719;48.188;11.618;2023-05-07T07:05:55;2.47;;;1.02;;
25915;SDS011;13719;48.188;11.618;2023-05-07T07:08:23;2.30;;;1.35;;
25915;SDS011;13719;48.188;11.618;2023-05-07T07:10:53;1.17;;;0.90;;
25915;SDS011;13719;48.188;11.618;2023-05-07T07:13:21;4.93;;;1.67;;
25915;SDS011;13719;48.188;11.618;2023-05-07T07:15:51;1.33;;;0.93;;
25915;SDS011;13719;48.188;11.618;2023-05-07T07:18:19;2.08;;;1.20;;
25915;SDS011;13719;48.188;11.618;2023-05-07T07:20:47;2.63;;;1.30;;
25915;SDS011;13719;48.188;11.618;2023-05-07T07:23:16;2.25;;;1.25;;
25915;SDS011;13719;48.188;11.618;2023-05-07T07:25:45;1.00;;;0.85;;
25915;SDS011;13719;48.188;11.618;2023-05-07T07:28:14;1.38;;;0.88;;
25915;SDS011;13719;48.188;11.618;2023-05-07T07:30:43;1.38;;;0.80;;
25915;SDS011;13719;48.188;11.618;2023-05-07T07:33:11;0.60;;;0.60;;
25915;SDS011;13719;48.188;11.618;2023-05-07T07:35:40;1.20;;;1.10;;
25915;SDS011;13719;48.188;11.618;2023-05-07T07:38:08;0.88;;;0.70;;
25915;SDS011;13719;48.188;11.618;2023-05-07T07:40:37;1.75;;;1.23;;
25915;SDS011;13719;48.188;11.618;2023-05-07T07:43:05;1.55;;;1.05;;
25915;SDS011;13719;48.188;11.618;2023-05-07T07:45:35;1.88;;;0.95;;
25915;SDS011;13719;48.188;11.618;2023-05-07T07:48:06;1.58;;;1.20;;
25915;SDS011;13719;48.188;11.618;2023-05-07T07:50:34;1.17;;;0.95;;
25915;SDS011;13719;48.188;11.618;2023-05-07T07:53:11;5.40;;;1.40;;
25915;SDS011;13719;48.188;11.618;2023-05-07T07:55:40;1.92;;;1.10;;
25915;SDS011;13719;48.188;11.618;2023-05-07T07:58:09;2.03;;;1.08;;
25915;SDS011;13719;48.188;11.618;2023-05-07T08:00:39;2.03;;;1.08;;
25915;SDS011;13719;48.188;11.618;2023-05-07T08:03:09;2.80;;;1.30;;
25915;SDS011;13719;48.188;11.618;2023-05-07T08:05:38;1.58;;;1.02;;
25915;SDS011;13719;48.188;11.618;2023-05-07T08:08:06;1.10;;;0.88;;
25915;SDS011;13719;48.188;11.618;2023-05-07T08:10:35;4.35;;;2.00;;
25915;SDS011;13719;48.188;11.618;2023-05-07T08:13:05;3.30;;;1.30;;
25915;SDS011;13719;48.188;11.618;2023-05-07T08:15:34;1.92;;;1.15;;
25915;SDS011;13719;48.188;11.618;2023-05-07T08:18:04;1.52;;;0.82;;
25915;SDS011;13719;48.188;11.618;2023-05-07T08:20:32;1.23;;;0.95;;
25915;SDS011;13719;48.188;11.618;2023-05-07T08:23:05;2.00;;;1.30;;
25915;SDS011;13719;48.188;11.618;2023-05-07T08:25:34;1.67;;;0.93;;
25915;SDS011;13719;48.188;11.618;2023-05-07T08:28:03;1.20;;;1.10;;
25915;SDS011;13719;48.188;11.618;2023-05-07T08:30:35;1.13;;;0.90;;
25915;SDS011;13719;48.188;11.618;2023-05-07T08:33:04;1.63;;;1.13;;
25915;SDS011;13719;48.188;11.618;2023-05-07T08:35:33;3.33;;;1.10;;
25915;SDS011;13719;48.188;11.618;2023-05-07T08:38:02;0.95;;;0.88;;
25915;SDS011;13719;48.188;11.618;2023-05-07T08:40:30;2.05;;;1.10;;
25915;SDS011;13719;48.188;11.618;2023-05-07T08:43:02;1.10;;;0.70;;
25915;SDS011;13719;48.188;11.618;2023-05-07T08:45:30;4.50;;;1.42;;
25915;SDS011;13719;48.188;11.618;2023-05-07T08:47:59;1.58;;;1.05;;
25915;SDS011;13719;48.188;11.618;2023-05-07T08:50:29;1.77;;;1.05;;
25915;SDS011;13719;48.188;11.618;2023-05-07T08:52:58;1.38;;;0.88;;
25915;SDS011;13719;48.188;11.618;2023-05-07T08:55:27;0.88;;;0.80;;
25915;SDS011;13719;48.188;11.618;2023-05-07T08:57:56;1.67;;;1.17;;
25915;SDS011;13719;48.188;11.618;2023-05-07T09:00:25;1.15;;;1.05;;
25915;SDS011;13719;48.188;11.618;2023-05-07T09:02:53;1.67;;;1.10;;
25915;SDS011;13719;48.188;11.618;2023-05-07T09:05:22;2.40;;;1.25;;
25915;SDS011;13719;48.188;11.618;2023-05-07T09:07:52;1.33;;;1.05;;
25915;SDS011;13719;48.188;11.618;2023-05-07T09:10:23;1.50;;;1.00;;
25915;SDS011;13719;48.188;11.618;2023-05-07T09:12:52;2.72;;;1.20;;
25915;SDS011;13719;48.188;11.618;2023-05-07T09:15:20;2.00;;;1.10;;
25915;SDS011;13719;48.188;11.618;2023-05-07T09:17:49;1.73;;;1.20;;
25915;SDS011;13719;48.188;11.618;2023-05-07T09:20:17;1.33;;;1.05;;
25915;SDS011;13719;48.188;11.618;2023-05-07T09:22:45;1.83;;;0.90;;
25915;SDS011;13719;48.188;11.618;2023-05-07T09:25:15;3.58;;;1.38;;
25915;SDS011;13719;48.188;11.618;2023-05-07T09:27:55;3.05;;;1.27;;
25915;SDS011;13719;48.188;11.618;2023-05-07T09:30:26;2.17;;;1.27;;
25915;SDS011;13719;48.188;11.618;2023-05-07T09:32:55;4.22;;;1.27;;
25915;SDS011;13719;48.188;11.618;2023-05-07T09:35:24;1.27;;;0.88;;
25915;SDS011;13719;48.188;11.618;2023-05-07T09:37:53;2.70;;;1.13;;
25915;SDS011;13719;48.188;11.618;2023-05-07T09:40:24;2.65;;;1.30;;
25915;SDS011;13719;48.188;11.618;2023-05-07T09:42:52;1.33;;;0.80;;
25915;SDS011;13719;48.188;11.618;2023-05-07T09:45:21;1.98;;;1.10;;
25915;SDS011;13719;48.188;11.618;2023-05-07T09:47:53;1.02;;;0.90;;
25915;SDS011;13719;48.188;11.618;2023-05-07T09:50:23;2.50;;;1.27;;
25915;SDS011;13719;48.188;11.618;2023-05-07T09:52:54;1.70;;;1.02;;
25915;SDS011;13719;48.188;11.618;2023-05-07T09:55:24;4.03;;;1.38;;
25915;SDS011;13719;48.188;11.618;2023-05-07T09:57:53;1.48;;;0.80;;
25915;SDS011;13719;48.188;11.618;2023-05-07T10:00:22;0.63;;;0.57;;
25915;SDS011;13719;48.188;11.618;2023-05-07T10:02:51;0.57;;;0.57;;
25915;SDS011;13719;48.188;11.618;2023-05-07T10:05:19;0.85;;;0.63;;
25915;SDS011;13719;48.188;11.618;2023-05-07T10:07:48;1.02;;;0.80;;
25915;SDS011;13719;48.188;11.618;2023-05-07T10:10:17;0.95;;;0.70;;
25915;SDS011;13719;48.188;11.618;2023-05-07T10:12:46;1.50;;;0.57;;
25915;SDS011;13719;48.188;11.618;2023-05-07T10:15:15;0.98;;;0.80;;
25915;SDS011;13719;48.188;11.618;2023-05-07T10:17:43;1.00;;;0.70;;
25915;SDS011;13719;48.188;11.618;2023-05-07T10:20:13;0.57;;;0.57;;
25915;SDS011;13719;48.188;11.618;2023-05-07T10:22:43;0.77;;;0.60;;
25915;SDS011;13719;48.188;11.618;2023-05-07T10:25:13;1.30;;;0.80;;
25915;SDS011;13719;48.188;11.618;2023-05-07T10:27:42;0.93;;;0.60;;
25915;SDS011;13719;48.188;11.618;2023-05-07T10:30:15;1.67;;;0.93;;
25915;SDS011;13719;48.188;11.618;2023-05-07T10:32:48;1.13;;;0.70;;
25915;SDS011;13719;48.188;11.618;2023-05-07T10:35:19;2.83;;;0.60;;
25915;SDS011;13719;48.188;11.618;2023-05-07T10:37:48;0.88;;;0.73;;
25915;SDS011;13719;48.188;11.618;2023-05-07T10:40:17;0.77;;;0.60;;
25915;SDS011;13719;48.188;11.618;2023-05-07T10:42:55;1.50;;;1.10;;
25915;SDS011;13719;48.188;11.618;2023-05-07T10:45:27;2.30;;;1.02;;
25915;SDS011;13719;48.188;11.618;2023-05-07T10:48:08;1.17;;;0.82;;
25915;SDS011;13719;48.188;11.618;2023-05-07T10:53:38;1.48;;;0.77;;
25915;SDS011;13719;48.188;11.618;2023-05-07T10:56:25;1.10;;;0.77;;
25915;SDS011;13719;48.188;11.618;2023-05-07T11:01:50;1.30;;;0.70;;
25915;SDS011;13719;48.188;11.618;2023-05-07T11:04:19;1.60;;;0.77;;
25915;SDS011;13719;48.188;11.618;2023-05-07T11:09:55;1.40;;;0.88;;
25915;SDS011;13719;48.188;11.618;2023-05-07T11:15:12;1.05;;;0.70;;
25915;SDS011;13719;48.188;11.618;2023-05-07T11:20:50;0.95;;;0.77;;
25915;SDS011;13719;48.188;11.618;2023-05-07T11:26:07;0.98;;;0.77;;
25915;SDS011;13719;48.188;11.618;2023-05-07T11:28:36;0.80;;;0.60;;
25915;SDS011;13719;48.188;11.618;2023-05-07T11:31:05;1.20;;;0.65;;
25915;SDS011;13719;48.188;11.618;2023-05-07T11:33:34;2.03;;;0.60;;
25915;SDS011;13719;48.188;11.618;2023-05-07T11:36:05;0.82;;;0.60;;
25915;SDS011;13719;48.188;11.618;2023-05-07T11:38:34;1.75;;;0.70;;
25915;SDS011;13719;48.188;11.618;2023-05-07T11:41:03;0.55;;;0.55;;
25915;SDS011;13719;48.188;11.618;2023-05-07T11:43:32;1.90;;;0.98;;
25915;SDS011;13719;48.188;11.618;2023-05-07T11:46:05;1.33;;;0.68;;
25915;SDS011;13719;48.188;11.618;2023-05-07T11:48:34;0.98;;;0.68;;
25915;SDS011;13719;48.188;11.618;2023-05-07T11:51:05;0.75;;;0.45;;
25915;SDS011;13719;48.188;11.618;2023-05-07T11:53:36;3.70;;;0.77;;
25915;SDS011;13719;48.188;11.618;2023-05-07T11:56:07;1.25;;;0.57;;
25915;SDS011;13719;48.188;11.618;2023-05-07T11:58:36;2.47;;;0.63;;
25915;SDS011;13719;48.188;11.618;2023-05-07T12:01:06;1.02;;;0.70;;
25915;SDS011;13719;48.188;11.618;2023-05-07T12:03:35;1.13;;;0.70;;
25915;SDS011;13719;48.188;11.618;2023-05-07T12:06:07;0.70;;;0.65;;
25915;SDS011;13719;48.188;11.618;2023-05-07T12:08:36;0.63;;;0.50;;
25915;SDS011;13719;48.188;11.618;2023-05-07T12:11:06;0.47;;;0.47;;
25915;SDS011;13719;48.188;11.618;2023-05-07T12:13:35;0.85;;;0.50;;
25915;SDS011;13719;48.188;11.618;2023-05-07T12:16:03;1.48;;;0.82;;
25915;SDS011;13719;48.188;11.618;2023-05-07T12:18:32;0.60;;;0.60;;
25915;SDS011;13719;48.188;11.618;2023-05-07T12:21:01;1.58;;;0.77;;
25915;SDS011;13719;48.188;11.618;2023-05-07T12:23:31;2.92;;;0.63;;
25915;SDS011;13719;48.188;11.618;2023-05-07T12:26:00;0.40;;;0.40;;
25915;SDS011;13719;48.188;11.618;2023-05-07T12:28:35;1.10;;;1.00;;
25915;SDS011;13719;48.188;11.618;2023-05-07T12:31:05;0.85;;;0.80;;
25915;SDS011;13719;48.188;11.618;2023-05-07T12:33:34;1.15;;;0.70;;
25915;SDS011;13719;48.188;11.618;2023-05-07T12:36:03;1.20;;;0.50;;
25915;SDS011;13719;48.188;11.618;2023-05-07T12:38:38;0.98;;;0.77;;
25915;SDS011;13719;48.188;11.618;2023-05-07T12:41:07;1.33;;;0.80;;
25915;SDS011;13719;48.188;11.618;2023-05-07T12:43:36;1.58;;;0.52;;
25915;SDS011;13719;48.188;11.618;2023-05-07T12:46:05;3.08;;;0.55;;
25915;SDS011;13719;48.188;11.618;2023-05-07T12:48:36;0.60;;;0.50;;
25915;SDS011;13719;48.188;11.618;2023-05-07T12:51:05;0.77;;;0.57;;
25915;SDS011;13719;48.188;11.618;2023-05-07T12:53:39;0.90;;;0.35;;
25915;SDS011;13719;48.188;11.618;2023-05-07T12:56:09;0.22;;;0.22;;
25915;SDS011;13719;48.188;11.618;2023-05-07T12:58:38;1.02;;;0.43;;
25915;SDS011;13719;48.188;11.618;2023-05-07T13:01:06;0.65;;;0.47;;
25915;SDS011;13719;48.188;11.618;2023-05-07T13:03:36;0.95;;;0.65;;
25915;SDS011;13719;48.188;11.618;2023-05-07T13:06:06;0.50;;;0.43;;
25915;SDS011;13719;48.188;11.618;2023-05-07T13:08:36;0.73;;;0.38;;
25915;SDS011;13719;48.188;11.618;2023-05-07T13:11:07;0.88;;;0.43;;
25915;SDS011;13719;48.188;11.618;2023-05-07T13:13:38;0.50;;;0.50;;
25915;SDS011;13719;48.188;11.618;2023-05-07T13:16:07;1.05;;;0.50;;
25915;SDS011;13719;48.188;11.618;2023-05-07T13:18:36;2.85;;;0.70;;
25915;SDS011;13719;48.188;11.618;2023-05-07T13:21:04;0.63;;;0.50;;
25915;SDS011;13719;48.188;11.618;2023-05-07T13:23:33;1.17;;;0.80;;
25915;SDS011;13719;48.188;11.618;2023-05-07T13:26:01;1.08;;;0.60;;
25915;SDS011;13719;48.188;11.618;2023-05-07T13:28:45;1.30;;;0.80;;
25915;SDS011;13719;48.188;11.618;2023-05-07T13:31:14;1.17;;;0.70;;
25915;SDS011;13719;48.188;11.618;2023-05-07T13:33:43;0.82;;;0.70;;
25915;SDS011;13719;48.188;11.618;2023-05-07T13:36:11;0.52;;;0.47;;
25915;SDS011;13719;48.188;11.618;2023-05-07T13:38:39;0.98;;;0.50;;
25915;SDS011;13719;48.188;11.618;2023-05-07T13:41:08;1.17;;;0.70;;
25915;SDS011;13719;48.188;11.618;2023-05-07T13:43:36;0.85;;;0.63;;
25915;SDS011;13719;48.188;11.618;2023-05-07T13:46:06;1.52;;;0.95;;
25915;SDS011;13719;48.188;11.618;2023-05-07T13:48:35;3.38;;;1.50;;
25915;SDS011;13719;48.188;11.618;2023-05-07T13:51:03;0.70;;;0.60;;
25915;SDS011;13719;48.188;11.618;2023-05-07T13:53:31;1.02;;;0.60;;
25915;SDS011;13719;48.188;11.618;2023-05-07T13:56:00;1.10;;;0.75;;
25915;SDS011;13719;48.188;11.618;2023-05-07T13:58:30;0.98;;;0.90;;
25915;SDS011;13719;48.188;11.618;2023-05-07T14:00:59;2.13;;;0.63;;
25915;SDS011;13719;48.188;11.618;2023-05-07T14:03:29;0.40;;;0.40;;
25915;SDS011;13719;48.188;11.618;2023-05-07T14:05:58;0.95;;;0.70;;
25915;SDS011;13719;48.188;11.618;2023-05-07T14:08:27;1.85;;;0.73;;
25915;SDS011;13719;48.188;11.618;2023-05-07T14:10:57;0.77;;;0.77;;
25915;SDS011;13719;48.188;11.618;2023-05-07T14:13:26;0.90;;;0.65;;
25915;SDS011;13719;48.188;11.618;2023-05-07T14:15:56;0.95;;;0.75;;
25915;SDS011;13719;48.188;11.618;2023-05-07T14:18:25;2.92;;;0.60;;
25915;SDS011;13719;48.188;11.618;2023-05-07T14:20:56;1.10;;;0.73;;
25915;SDS011;13719;48.188;11.618;2023-05-07T14:23:24;1.17;;;0.63;;
25915;SDS011;13719;48.188;11.618;2023-05-07T14:25:53;0.63;;;0.60;;
25915;SDS011;13719;48.188;11.618;2023-05-07T14:28:23;0.90;;;0.73;;
25915;SDS011;13719;48.188;11.618;2023-05-07T14:30:51;1.98;;;1.00;;
25915;SDS011;13719;48.188;11.618;2023-05-07T14:33:20;1.38;;;0.88;;
25915;SDS011;13719;48.188;11.618;2023-05-07T14:35:48;1.02;;;0.70;;
25915;SDS011;13719;48.188;11.618;2023-05-07T14:38:18;2.42;;;1.08;;
25915;SDS011;13719;48.188;11.618;2023-05-07T14:40:46;7.60;;;1.23;;
25915;SDS011;13719;48.188;11.618;2023-05-07T14:43:15;3.08;;;1.27;;
25915;SDS011;13719;48.188;11.618;2023-05-07T14:45:43;5.38;;;1.20;;
25915;SDS011;13719;48.188;11.618;2023-05-07T14:48:12;0.82;;;0.73;;
25915;SDS011;13719;48.188;11.618;2023-05-07T14:50:41;1.65;;;0.90;;
25915;SDS011;13719;48.188;11.618;2023-05-07T14:53:09;1.13;;;0.80;;
25915;SDS011;13719;48.188;11.618;2023-05-07T14:55:39;1.27;;;0.80;;
25915;SDS011;13719;48.188;11.618;2023-05-07T14:58:08;1.55;;;0.90;;
25915;SDS011;13719;48.188;11.618;2023-05-07T15:00:36;1.30;;;0.70;;
25915;SDS011;13719;48.188;11.618;2023-05-07T15:03:05;1.67;;;0.93;;